Relevés horaires Matro (Suisse)


Relevés horaires à Matro - Lundi 06 Oct. 2014
Heure UTC1 Température [°C] Vent [km/h] Hum. [%] Pres.4 [hPa] Visi. [Km] Nébu. [octa] Préc.5 [mm] Cond.
2m. Res. Ros. Dir.2 Vit. Moy. Raf.3
23:00 2.0 -3.8 0.8 SE 29.6 29.6 35.2 92 850(-0.1/3h) -- -- -- --
22:00 1.8 -3.9 0.5 SSE 27.8 27.8 31.5 91 850(0.1/3h) -- -- -- --
21:00 2.2 -3.2 1.3 SSE 25.9 25.9 31.5 94 850(0.2/3h) -- -- -- --
20:00 2.4 -2.5 -0.9 SSE 22.2 22.2 25.9 79 850(0.2/3h) -- -- -- --
19:00 2.7 -1.4 0.4 SSE 16.7 18.5 20.4 85 850(0.2/3h) -- -- -- --
18:00 2.6 -1.5 1.3 SSE 16.7 20.4 27.8 91 850(0.2/3h) -- -- -- --
17:00 2.7 -1.4 0.5 SSE 16.7 16.7 20.4 85 850(0.1/3h) -- -- -- --
16:00 2.3 -1.5 1.5 SSE 14.8 14.8 18.5 94 850(0.0/3h) -- -- -- --
15:00 2.8 -0.6 1.1 SSE 13.0 20.4 27.8 89 850(-0.1/3h) -- -- -- --
14:00 2.5 -1.6 1.7 S 16.7 20.4 27.8 94 850(-0.4/3h) -- -- -- --
13:00 2.3 -2.4 1.6 S 20.4 20.4 27.8 95 850(-0.4/3h) -- -- -- --
12:00 2.5 -2.1 2.2 S 20.4 38.9 46.3 98 850(-0.4/3h) -- -- -- --
11:00 2.4 -2.3 2.1 SSE 20.4 25.9 31.5 98 850(0.1/3h) -- -- -- --
10:00 1.8 -3.9 0.5 SSE 27.8 29.6 35.2 91 850(0.2/3h) -- -- -- --
09:00 1.9 -3.6 -0.3 SSE 25.9 38.9 46.3 85 850(0.3/3h) -- -- -- --
08:00 1.4 -5.1 0.9 SSE 35.2 38.9 46.3 96 850(0.2/3h) -- -- -- --
07:00 1.2 -5.7 1.2 SSE 38.9 38.9 44.4 100 850(0.2/3h) -- -- -- --
06:00 2.0 -3.4 2.0 SE 25.9 37.0 46.3 100 850(0.3/3h) -- -- -- --
05:00 1.7 -4.2 0.9 SSE 29.6 31.5 38.9 94 850(0.1/3h) -- -- -- --
04:00 2.1 -3.9 0.8 SSE 31.5 31.5 37.0 91 850(-0.3/3h) -- -- -- --
03:00 2.1 -3.7 1.4 SSE 29.6 37.0 46.3 95 850(-0.5/3h) -- -- -- --
02:00 2.6 -3.7 2.6 SSE 37.0 37.0 42.6 100 850(-0.8/3h) -- -- -- --
01:00 2.9 -2.8 2.8 SE 31.5 35.2 40.7 99 850(-0.7/3h) -- -- -- --
00:00 2.8 -3.1 2.5 SE 33.3 35.2 44.4 98 850(-0.4/3h) -- -- -- --

1 Coordinated Universal Time. Actuellement il est 22:00 locale et 20:00 UTC.

2 Le vent souffle depuis la direction indiquée vers la direction oposée.

3 Les rafales max. sont disponible 40 min après l'heure du relevé.

4 Pour les stations d'altitude (plus de 600m) le géopotentiel du niveau le plus proche de la pression obligatoire est indiqué.

5 Les stations disposant d'un diffuseur peuvent indiquer "trace". Cela signifie que des précipitations ont touchés le sol mais que la quantité est inférieure à 0.1 mm.

Copyright

Les données affichées sur cette page sont la propriété exclusive de Météo Suisse.

Récapitulatif de la journée
Température [°C] Vent [km/h] Ensoleillement4 [h] Precipitations totale5 [mm] Pression [Hpa]
Min1 Max.2 Moy.3 Max. Min Max.
1.7 3.0 28.9 46.3 0 h 24 min 0 850.0 850.0

1 Température minimale relevée entre 18:00 UTC la veille et 18:00 UTC le jour donné.

2 Température maximale relevée entre 06:00 UTC le jour donné et 06:00 UTC le lendemain.

3 Vent moyen de la journée basé sur les relevés horaires.

4 Ensoleillement en heures relevé entre 06:00 UTC la veille et 06:00 UTC le jour donné.

5 Précipitations totales tombées entre 06:00 UTC la jour donné et 06:00 UTC le lendemain.

Graphiques horaires